PAUN/UNK METAR and TAF weather

Enter ICAO airport designator
Station Type Date Time Source
PAUN METAR 2021/09/24 04:56 UTC NOAA

PAUN 240456Z AUTO 35011KT 10SM CLR 01/M04 A2974 RMK AO2 SLP073 T00111044 FZRANO


Station Type Date Time Source
PAUN Decoded METAR 2021/09/24 04:56 UTC NOAA

Unalakleet, AK, United States (PAUN) 63-53N 160-48W 6M
Sep 24, 2021 - 12:56 AM EDT / 2021.09.24 0456 UTC
Wind: from the N (350 degrees) at 13 MPH (11 KT):0
Visibility: 10 mile(s):0
Sky conditions: clear
Temperature: 34.0 F (1.1 C)
Windchill: 24 F (-4 C):1
Dew Point: 24.1 F (-4.4 C)
Relative Humidity: 66%
Pressure (altimeter): 29.74 in. Hg (1007 hPa)
ob: PAUN 240456Z AUTO 35011KT 10SM CLR 01/M04 A2974 RMK AO2 SLP073 T00111044 FZRANO
cycle: 5

Station Type Date Time Source
PAUN TAF 2021/09/24 06:30 UTC NOAA

TAF PAUN 240528Z 2406/2506 35011KT P6SM SKC
FM240800 33008KT P6SM SKC
FM241400 05008KT P6SM SKC
FM242000 31008KT P6SM SKC

Example: see airport list